Prince Bio — FU7879 — position and weather

sailwx.info

Track history (hours):
 
Tides and Currents Weather Stations Pressure Air Temp Water Temp Dewpoint Dewpoint Depression Visibility Wind Speed Wind Dir Waves Ship Positions

Prince Bio

Last reported at 2018-Jun-18 09:40 UTC. Time now 2018-Jun-24 09:14 UTC.
Position N 48°41' W 002°51'.

Length 12 m.

Type: Pleasure craft. MMSI: 227545110.

Date/timePositionNaut miles runAvg speedWind from/ knotsBaromVisibWave heightAir tempDewpointWater temp
2018-Jun-18 09:40N 48°41' W 002°51'1 5.0
2018-Jun-18 09:29N 48°40' W 002°50'1 2.4
2018-Jun-18 08:57N 48°39' W 002°49'0 0.0
2018-Jun-18 08:30N 48°39' W 002°49'0 0.0
2018-Jun-18 07:54N 48°39' W 002°49'0 0.0
2018-Jun-18 06:18N 48°39' W 002°49'  
2018-Jun-10 09:59N 49°36' W 002°16'20 7.8
2018-Jun-10 07:27N 49°43' W 001°48'7 6.6
2018-Jun-10 06:27N 49°40' W 001°39'2 3.2
2018-Jun-10 05:54N 49°39' W 001°37'0 0.0
2018-Jun-10 05:21N 49°39' W 001°37'0 0.0
2018-Jun-10 04:42N 49°39' W 001°37'0 0.0
2018-Jun-10 03:51N 49°39' W 001°37'0 0.0
2018-Jun-10 03:27N 49°39' W 001°37'0 0.0
2018-Jun-10 01:42N 49°39' W 001°37'0 0.0
2018-Jun-10 01:15N 49°39' W 001°37'0 0.0
2018-Jun-10 01:00N 49°39' W 001°37'0 0.0
2018-Jun-10 00:24N 49°39' W 001°37'0 0.0
2018-Jun-09 23:39N 49°39' W 001°37'0 0.0
2018-Jun-09 23:18N 49°39' W 001°37'0 0.0
2018-Jun-09 21:54N 49°39' W 001°37'0 0.0
2018-Jun-09 20:36N 49°39' W 001°37'0 0.0
2018-Jun-09 20:30N 49°39' W 001°37'0 0.0
2018-Jun-09 19:57N 49°39' W 001°37'0 0.0
2018-Jun-09 19:06N 49°39' W 001°37'0 0.0
2018-Jun-09 18:42N 49°39' W 001°37'0 0.0
2018-Jun-09 17:39N 49°39' W 001°37'0 0.0
2018-Jun-09 15:09N 49°39' W 001°37'0 0.0
2018-Jun-09 14:30N 49°39' W 001°37'0 0.0
2018-Jun-09 13:57N 49°39' W 001°37'0 0.0
2018-Jun-09 13:24N 49°39' W 001°37'0 0.0
2018-Jun-09 13:00N 49°39' W 001°37'0 0.0
2018-Jun-09 12:30N 49°39' W 001°37'0 0.0
2018-Jun-09 12:00N 49°39' W 001°37'0 0.0
2018-Jun-09 10:30N 49°39' W 001°37'1 2.8
2018-Jun-09 10:00N 49°40' W 001°36'3 5.3
2018-Jun-09 09:30N 49°41' W 001°33'3 5.1
2018-Jun-09 09:00N 49°42' W 001°29'3 5.8
2018-Jun-09 08:29N 49°44' W 001°26'6 0.3
2018-Jun-08 11:42N 49°42' W 001°35'1 5.7
2018-Jun-08 11:30N 49°41' W 001°35'2 4.5
2018-Jun-08 10:58N 49°39' W 001°37'0 0.2
2018-Jun-08 10:25N 49°39' W 001°37'0 0.0
2018-Jun-08 09:58N 49°39' W 001°37'  
Track history (hours):
 
Tides and Currents Weather Stations Pressure Air Temp Water Temp Dewpoint Dewpoint Depression Visibility Wind Speed Wind Dir Waves Ship Positions

Prince Bio

Last reported at 2018-Jun-18 09:40 UTC. Time now 2018-Jun-24 09:14 UTC.
Position N 48°41' W 002°51'.

Length 12 m.

Type: Pleasure craft. MMSI: 227545110.

Date/timePositionNaut miles runAvg speedWind from/ knotsBaromVisibWave heightAir tempDewpointWater temp
2018-Jun-18 09:40N 48°41' W 002°51'1 5.0
2018-Jun-18 09:29N 48°40' W 002°50'1 2.4
2018-Jun-18 08:57N 48°39' W 002°49'0 0.0
2018-Jun-18 08:30N 48°39' W 002°49'0 0.0
2018-Jun-18 07:54N 48°39' W 002°49'0 0.0
2018-Jun-18 06:18N 48°39' W 002°49'  
2018-Jun-10 09:59N 49°36' W 002°16'20 7.8
2018-Jun-10 07:27N 49°43' W 001°48'7 6.6
2018-Jun-10 06:27N 49°40' W 001°39'2 3.2
2018-Jun-10 05:54N 49°39' W 001°37'0 0.0
2018-Jun-10 05:21N 49°39' W 001°37'0 0.0
2018-Jun-10 04:42N 49°39' W 001°37'0 0.0
2018-Jun-10 03:51N 49°39' W 001°37'0 0.0
2018-Jun-10 03:27N 49°39' W 001°37'0 0.0
2018-Jun-10 01:42N 49°39' W 001°37'0 0.0
2018-Jun-10 01:15N 49°39' W 001°37'0 0.0
2018-Jun-10 01:00N 49°39' W 001°37'0 0.0
2018-Jun-10 00:24N 49°39' W 001°37'0 0.0
2018-Jun-09 23:39N 49°39' W 001°37'0 0.0
2018-Jun-09 23:18N 49°39' W 001°37'0 0.0
2018-Jun-09 21:54N 49°39' W 001°37'0 0.0
2018-Jun-09 20:36N 49°39' W 001°37'0 0.0
2018-Jun-09 20:30N 49°39' W 001°37'0 0.0
2018-Jun-09 19:57N 49°39' W 001°37'0 0.0
2018-Jun-09 19:06N 49°39' W 001°37'0 0.0
2018-Jun-09 18:42N 49°39' W 001°37'0 0.0
2018-Jun-09 17:39N 49°39' W 001°37'0 0.0
2018-Jun-09 15:09N 49°39' W 001°37'0 0.0
2018-Jun-09 14:30N 49°39' W 001°37'0 0.0
2018-Jun-09 13:57N 49°39' W 001°37'0 0.0
2018-Jun-09 13:24N 49°39' W 001°37'0 0.0
2018-Jun-09 13:00N 49°39' W 001°37'0 0.0
2018-Jun-09 12:30N 49°39' W 001°37'0 0.0
2018-Jun-09 12:00N 49°39' W 001°37'0 0.0
2018-Jun-09 10:30N 49°39' W 001°37'1 2.8
2018-Jun-09 10:00N 49°40' W 001°36'3 5.3
2018-Jun-09 09:30N 49°41' W 001°33'3 5.1
2018-Jun-09 09:00N 49°42' W 001°29'3 5.8
2018-Jun-09 08:29N 49°44' W 001°26'6 0.3
2018-Jun-08 11:42N 49°42' W 001°35'1 5.7
2018-Jun-08 11:30N 49°41' W 001°35'2 4.5
2018-Jun-08 10:58N 49°39' W 001°37'0 0.2
2018-Jun-08 10:25N 49°39' W 001°37'0 0.0
2018-Jun-08 09:58N 49°39' W 001°37'  

Dump ship's entire track history